Time;durP1;ratioP1;P1;durP2;ratioP2;P2;SDS_P1;SDS_P2;PMS_P1;PMS_P2;Temp;Humidity;BMP_temperature;BMP_pressure;BME280_temperature;BME280_humidity;BME280_pressure;Samples;Min_cycle;Max_cycle;Signal;HPM_P1;HPM_P2
2023/01/01 00:01:54;;;;;;;13.47;5.97;;;14.30;99.90;;;;;;5033625;28;20240;-50
2023/01/01 00:04:22;;;;;;;10.30;5.93;;;14.30;99.90;;;;;;5034115;28;20326;-50
2023/01/01 00:06:50;;;;;;;12.53;5.40;;;14.40;99.90;;;;;;5033314;28;20223;-50
2023/01/01 00:12:18;;;;;;;12.47;5.27;;;14.40;99.90;;;;;;4992345;28;20233;-50
2023/01/01 00:14:48;;;;;;;13.67;6.03;;;14.40;99.90;;;;;;4992311;28;20241;-51
2023/01/01 00:17:16;;;;;;;15.33;6.23;;;14.40;99.90;;;;;;5011443;28;20255;-49
2023/01/01 00:19:44;;;;;;;12.00;6.17;;;14.40;99.90;;;;;;5033742;28;20593;-51
2023/01/01 00:22:12;;;;;;;11.40;6.50;;;14.30;99.90;;;;;;5033886;28;20243;-49
2023/01/01 00:25:00;;;;;;;12.93;6.30;;;14.40;99.90;;;;;;5033685;28;20232;-51
2023/01/01 00:27:28;;;;;;;13.13;7.30;;;14.40;99.90;;;;;;5030846;28;20223;-47
2023/01/01 00:29:57;;;;;;;11.93;7.50;;;14.40;99.90;;;;;;5024984;28;20261;-49
2023/01/01 00:32:25;;;;;;;14.47;7.30;;;14.40;99.90;;;;;;5025581;28;20257;-50
2023/01/01 00:34:53;;;;;;;12.10;7.00;;;14.40;99.90;;;;;;5014991;28;20267;-51
2023/01/01 00:37:21;;;;;;;14.40;7.40;;;14.40;99.90;;;;;;5023297;28;20315;-51
2023/01/01 00:39:49;;;;;;;14.27;7.77;;;14.40;99.90;;;;;;5013605;28;20693;-50
2023/01/01 00:42:17;;;;;;;14.67;7.57;;;14.40;99.90;;;;;;5014135;28;20620;-51
2023/01/01 00:44:45;;;;;;;14.90;7.23;;;14.40;99.90;;;;;;5013289;28;20229;-48
2023/01/01 00:47:15;;;;;;;13.33;6.80;;;14.40;99.90;;;;;;5013724;28;20228;-48
2023/01/01 00:49:43;;;;;;;12.73;7.00;;;14.40;99.90;;;;;;5013441;28;20239;-51
2023/01/01 00:52:11;;;;;;;15.20;7.17;;;14.30;99.90;;;;;;5013971;28;20250;-50
2023/01/01 00:54:39;;;;;;;12.17;6.00;;;14.50;99.90;;;;;;5013537;28;20236;-52
2023/01/01 00:57:07;;;;;;;11.17;6.00;;;14.50;99.90;;;;;;5016647;28;20225;-49
2023/01/01 00:59:35;;;;;;;15.83;6.33;;;14.50;99.90;;;;;;5024501;28;20246;-51
2023/01/01 01:02:03;;;;;;;10.63;6.10;;;14.40;99.90;;;;;;5018174;28;20233;-51
2023/01/01 01:04:33;;;;;;;12.67;5.73;;;14.40;99.90;;;;;;5012291;28;20237;-48
2023/01/01 01:07:01;;;;;;;11.50;6.03;;;14.40;99.90;;;;;;5022781;28;20463;-52
2023/01/01 01:09:29;;;;;;;16.13;5.63;;;14.40;99.90;;;;;;5032484;28;20232;-50
2023/01/01 01:11:57;;;;;;;9.87;4.87;;;14.40;99.90;;;;;;5033089;28;20585;-50
2023/01/01 01:14:45;;;;;;;10.67;5.53;;;14.40;99.90;;;;;;5032941;28;20275;-51
2023/01/01 01:17:13;;;;;;;9.20;5.10;;;14.40;99.90;;;;;;5030619;28;20242;-48
2023/01/01 01:19:42;;;;;;;10.47;4.67;;;14.40;99.90;;;;;;5025356;28;20243;-50
2023/01/01 01:22:10;;;;;;;10.47;4.57;;;14.50;99.90;;;;;;5050566;28;20222;-51
2023/01/01 01:24:39;;;;;;;12.77;4.77;;;14.50;99.90;;;;;;5052118;28;20626;-49
2023/01/01 01:27:07;;;;;;;12.53;4.43;;;14.50;99.90;;;;;;5052366;28;20219;-52
2023/01/01 01:29:35;;;;;;;11.00;4.90;;;14.50;99.90;;;;;;5052633;28;20247;-51
2023/01/01 01:32:03;;;;;;;8.97;4.23;;;14.50;99.90;;;;;;5051805;28;20258;-50
2023/01/01 01:34:31;;;;;;;11.17;4.33;;;14.60;99.90;;;;;;5052132;28;20683;-49
2023/01/01 01:37:00;;;;;;;14.47;4.50;;;14.60;99.90;;;;;;5052748;28;20233;-48
2023/01/01 01:39:28;;;;;;;8.03;4.33;;;14.60;99.90;;;;;;5052435;28;20231;-53
2023/01/01 01:41:56;;;;;;;16.03;5.27;;;14.60;99.90;;;;;;5052802;28;20236;-51
2023/01/01 01:44:51;;;;;;;11.10;4.33;;;14.60;99.90;;;;;;5052464;28;20236;-52
2023/01/01 01:47:23;;;;;;;10.20;4.97;;;14.50;99.90;;;;;;5052699;28;20228;-48
2023/01/01 01:49:54;;;;;;;10.47;4.20;;;14.50;99.90;;;;;;5052589;28;20227;-50
2023/01/01 01:52:24;;;;;;;13.53;4.40;;;14.50;99.90;;;;;;5052340;28;20223;-49
2023/01/01 01:54:53;;;;;;;13.77;5.03;;;14.50;99.90;;;;;;5052459;28;20220;-50
2023/01/01 01:57:23;;;;;;;9.60;4.93;;;14.50;99.90;;;;;;5052499;28;20237;-51
2023/01/01 01:59:55;;;;;;;10.80;5.10;;;14.50;99.90;;;;;;5052468;28;20587;-48
2023/01/01 02:02:31;;;;;;;10.17;4.77;;;14.50;99.90;;;;;;5051895;28;20245;-49
2023/01/01 02:05:00;;;;;;;10.37;5.00;;;14.50;99.90;;;;;;5050678;28;20249;-51
2023/01/01 02:07:31;;;;;;;14.33;5.17;;;14.50;99.90;;;;;;5052289;28;20231;-51
2023/01/01 02:10:01;;;;;;;11.10;5.33;;;14.50;99.90;;;;;;5052401;28;20231;-49
2023/01/01 02:12:29;;;;;;;12.43;5.40;;;14.30;99.90;;;;;;5052322;28;20235;-50
2023/01/01 02:14:57;;;;;;;10.20;5.30;;;14.20;99.90;;;;;;5052060;28;20228;-49
2023/01/01 02:17:32;;;;;;;15.77;5.83;;;14.20;99.90;;;;;;5052073;28;20292;-51
2023/01/01 02:20:28;;;;;;;14.23;6.23;;;14.20;99.90;;;;;;5051992;28;20746;-50
2023/01/01 02:23:38;;;;;;;10.57;4.80;;;14.40;99.90;;;;;;5055778;28;20322;-50
2023/01/01 02:29:41;;;;;;;10.67;6.10;;;14.50;99.90;;;;;;5050457;28;20231;-51
2023/01/01 02:32:18;;;;;;;10.53;5.40;;;14.50;99.90;;;;;;5055309;28;20625;-51
2023/01/01 02:34:52;;;;;;;11.10;5.37;;;14.50;99.90;;;;;;5054997;28;20674;-51
2023/01/01 02:37:22;;;;;;;13.30;5.80;;;14.40;99.90;;;;;;5055966;28;20239;-52
2023/01/01 02:39:55;;;;;;;15.60;7.60;;;14.50;99.90;;;;;;5055834;28;20690;-51
2023/01/01 02:42:27;;;;;;;12.10;7.33;;;14.40;99.90;;;;;;5055782;28;20557;-52
2023/01/01 02:44:59;;;;;;;10.30;7.03;;;14.50;99.90;;;;;;5055627;28;20247;-50
2023/01/01 02:47:27;;;;;;;11.73;8.37;;;14.40;99.90;;;;;;5055340;28;20239;-47
2023/01/01 02:50:02;;;;;;;14.83;7.80;;;14.50;99.90;;;;;;5055403;28;20219;-50
2023/01/01 02:53:02;;;;;;;13.43;8.20;;;14.40;99.90;;;;;;5055459;28;20223;-52
2023/01/01 02:55:42;;;;;;;13.50;8.33;;;14.40;99.90;;;;;;5045058;28;20231;-51
2023/01/01 03:01:13;;;;;;;14.27;8.47;;;14.40;99.90;;;;;;5054925;28;20250;-50
2023/01/01 03:03:47;;;;;;;14.30;8.07;;;14.50;99.90;;;;;;5055129;28;20272;-52
2023/01/01 03:06:25;;;;;;;14.03;8.83;;;14.50;99.90;;;;;;5035175;28;20239;-49
2023/01/01 03:09:01;;;;;;;17.30;8.97;;;14.40;99.90;;;;;;5035386;28;20683;-50
2023/01/01 03:11:38;;;;;;;13.57;8.30;;;14.40;99.90;;;;;;5038296;28;20293;-51
2023/01/01 03:14:14;;;;;;;13.97;8.70;;;14.40;99.90;;;;;;5055373;28;20669;-52
2023/01/01 03:16:49;;;;;;;14.00;9.03;;;14.40;99.90;;;;;;5054761;28;20242;-50
2023/01/01 03:19:19;;;;;;;14.87;8.53;;;14.40;99.90;;;;;;5055180;28;20725;-52
2023/01/01 03:21:51;;;;;;;16.27;9.10;;;14.40;99.90;;;;;;5054579;28;20222;-52
2023/01/01 03:24:25;;;;;;;10.80;8.40;;;14.30;99.90;;;;;;5054854;28;20709;-51
2023/01/01 03:26:56;;;;;;;15.90;9.43;;;14.20;99.90;;;;;;5054789;28;20239;-50
2023/01/01 03:29:27;;;;;;;17.40;9.63;;;14.30;99.90;;;;;;5054814;28;20226;-52
2023/01/01 03:31:59;;;;;;;15.07;9.10;;;14.20;99.90;;;;;;5053631;28;20722;-50
2023/01/01 03:34:32;;;;;;;16.70;9.63;;;14.30;99.90;;;;;;5054066;28;20235;-52
2023/01/01 03:37:05;;;;;;;15.07;9.77;;;14.30;99.90;;;;;;5054966;28;20596;-51
2023/01/01 03:39:36;;;;;;;11.93;8.80;;;14.30;99.90;;;;;;5054395;28;20236;-48
2023/01/01 03:42:13;;;;;;;16.17;9.30;;;14.30;99.90;;;;;;5054472;28;20670;-49
2023/01/01 03:44:45;;;;;;;15.23;9.20;;;14.30;99.90;;;;;;5054145;28;20228;-52
2023/01/01 03:47:15;;;;;;;11.47;8.27;;;14.20;99.90;;;;;;5054877;28;20232;-52
2023/01/01 03:49:44;;;;;;;13.77;8.63;;;14.20;99.90;;;;;;5054410;28;20236;-50
2023/01/01 03:52:29;;;;;;;14.80;8.10;;;14.20;99.90;;;;;;5054397;28;20227;-52
2023/01/01 03:55:04;;;;;;;14.03;8.27;;;14.20;99.90;;;;;;5054372;28;20235;-52
2023/01/01 03:57:42;;;;;;;16.83;8.33;;;14.20;99.90;;;;;;5053895;28;20274;-50
2023/01/01 04:00:15;;;;;;;11.93;7.67;;;14.20;99.90;;;;;;5045984;28;20706;-50
2023/01/01 04:02:49;;;;;;;16.70;8.10;;;14.20;99.90;;;;;;5045272;28;20324;-50
2023/01/01 04:05:19;;;;;;;12.63;7.00;;;14.10;99.90;;;;;;5026966;28;20235;-52
2023/01/01 04:07:48;;;;;;;15.53;7.57;;;14.20;99.90;;;;;;5034147;28;20231;-50
2023/01/01 04:10:19;;;;;;;13.90;7.03;;;14.20;99.90;;;;;;5033917;28;20236;-51
2023/01/01 04:12:49;;;;;;;11.73;7.60;;;14.10;99.90;;;;;;5033754;28;20231;-47
2023/01/01 04:15:19;;;;;;;13.60;7.67;;;14.10;99.90;;;;;;5033925;28;20286;-50
2023/01/01 04:17:49;;;;;;;13.60;7.37;;;14.20;99.90;;;;;;5033992;28;20595;-51
2023/01/01 04:20:18;;;;;;;13.37;6.93;;;14.10;99.90;;;;;;5033985;28;20703;-52
2023/01/01 04:22:47;;;;;;;12.53;7.00;;;14.10;99.90;;;;;;5041956;28;20231;-50
2023/01/01 04:25:16;;;;;;;16.13;6.50;;;14.10;99.90;;;;;;5046292;28;20271;-49
2023/01/01 04:27:44;;;;;;;9.93;5.97;;;14.10;99.90;;;;;;5050662;28;20234;-50
2023/01/01 04:30:14;;;;;;;13.93;6.77;;;14.10;99.90;;;;;;5045122;28;20228;-50
2023/01/01 04:32:42;;;;;;;12.33;6.50;;;14.10;99.90;;;;;;5043920;28;20266;-48
2023/01/01 04:35:13;;;;;;;9.87;6.60;;;14.10;99.90;;;;;;5026263;28;20231;-51
2023/01/01 04:37:43;;;;;;;9.90;6.00;;;14.10;99.90;;;;;;5033651;28;20616;-50
2023/01/01 04:40:12;;;;;;;10.33;5.50;;;14.10;99.90;;;;;;5033335;28;20239;-50
2023/01/01 04:42:42;;;;;;;9.40;5.53;;;14.10;99.90;;;;;;5032981;28;20228;-48
2023/01/01 04:45:13;;;;;;;10.60;5.73;;;14.10;99.90;;;;;;5032799;28;20322;-52
2023/01/01 04:47:42;;;;;;;10.13;5.20;;;14.10;99.90;;;;;;5032896;28;20702;-52
2023/01/01 04:50:11;;;;;;;9.60;5.50;;;14.10;99.90;;;;;;5033147;28;20227;-51
2023/01/01 04:52:39;;;;;;;8.37;5.07;;;14.10;99.90;;;;;;5040896;28;20232;-51
2023/01/01 04:55:14;;;;;;;8.10;5.10;;;14.10;99.90;;;;;;5044554;28;20245;-51
2023/01/01 04:57:43;;;;;;;8.80;4.50;;;14.10;99.90;;;;;;5050209;28;20222;-48
2023/01/01 05:00:12;;;;;;;6.53;4.23;;;14.10;99.90;;;;;;5036900;28;20227;-50
2023/01/01 05:02:40;;;;;;;9.57;4.30;;;14.10;99.90;;;;;;5043417;28;20691;-52
2023/01/01 05:05:09;;;;;;;9.47;4.30;;;14.10;99.90;;;;;;5024779;28;20235;-51
2023/01/01 05:07:38;;;;;;;11.10;4.63;;;14.10;99.90;;;;;;5032939;28;20240;-50
2023/01/01 05:10:07;;;;;;;6.97;4.10;;;14.20;99.90;;;;;;5033188;28;20232;-50
2023/01/01 05:12:35;;;;;;;8.63;4.00;;;14.20;99.90;;;;;;5033042;28;20324;-51
2023/01/01 05:15:04;;;;;;;10.30;3.97;;;14.20;99.90;;;;;;5032922;28;20598;-49
2023/01/01 05:17:32;;;;;;;9.40;3.83;;;14.20;99.90;;;;;;5032662;28;20228;-52
2023/01/01 05:20:00;;;;;;;6.13;3.40;;;14.20;99.90;;;;;;5032794;28;20590;-51
2023/01/01 05:22:28;;;;;;;8.90;3.53;;;14.20;99.90;;;;;;5038685;28;20229;-50
2023/01/01 05:24:58;;;;;;;9.63;3.53;;;14.20;99.90;;;;;;5044199;28;20227;-50
2023/01/01 05:27:26;;;;;;;8.07;3.43;;;14.20;99.90;;;;;;5049938;28;20230;-52
2023/01/01 05:29:54;;;;;;;9.13;3.87;;;14.20;99.90;;;;;;5044544;28;20231;-50
2023/01/01 05:32:22;;;;;;;10.00;3.53;;;14.30;99.90;;;;;;5045064;28;20235;-50
2023/01/01 05:34:50;;;;;;;10.33;3.10;;;14.30;99.90;;;;;;5032623;28;20244;-51
2023/01/01 05:37:18;;;;;;;7.43;3.50;;;14.30;99.90;;;;;;5032682;28;20363;-51
2023/01/01 05:39:46;;;;;;;8.33;3.57;;;14.20;99.90;;;;;;5032856;28;20243;-51
2023/01/01 05:42:17;;;;;;;6.03;2.87;;;14.30;99.90;;;;;;5032643;28;20232;-50
2023/01/01 05:44:45;;;;;;;6.03;3.27;;;14.30;99.90;;;;;;5032028;28;20231;-50
2023/01/01 05:47:16;;;;;;;9.90;3.60;;;14.30;99.90;;;;;;5032552;28;20696;-50
2023/01/01 05:49:44;;;;;;;7.73;3.33;;;14.20;99.90;;;;;;5032462;28;20224;-50
2023/01/01 05:52:12;;;;;;;8.60;3.30;;;14.20;99.90;;;;;;5036242;28;20242;-52
2023/01/01 05:54:40;;;;;;;5.20;3.10;;;14.30;99.90;;;;;;5036708;28;20223;-50
2023/01/01 05:57:08;;;;;;;6.07;3.00;;;14.30;99.90;;;;;;5037170;28;20245;-50
2023/01/01 05:59:37;;;;;;;8.43;3.30;;;14.30;99.90;;;;;;5047582;28;20231;-51
2023/01/01 06:02:05;;;;;;;7.03;2.87;;;14.40;99.90;;;;;;5055116;28;20736;-50
2023/01/01 06:04:34;;;;;;;9.60;3.70;;;14.40;99.90;;;;;;5055746;28;20238;-50
2023/01/01 06:07:02;;;;;;;9.43;2.80;;;14.40;99.90;;;;;;5056296;28;20586;-49
2023/01/01 06:09:30;;;;;;;7.87;2.90;;;14.30;99.90;;;;;;5056146;28;20583;-51
2023/01/01 06:11:58;;;;;;;7.10;2.93;;;14.30;99.90;;;;;;5056087;28;20234;-49
2023/01/01 06:14:26;;;;;;;6.17;2.57;;;14.30;99.90;;;;;;5055938;28;20226;-51
2023/01/01 06:16:55;;;;;;;9.53;3.13;;;14.40;99.90;;;;;;5056065;28;20722;-51
2023/01/01 06:19:23;;;;;;;8.67;3.10;;;14.30;99.90;;;;;;5056067;28;20301;-51
2023/01/01 06:21:51;;;;;;;9.67;3.20;;;14.30;99.90;;;;;;5055788;28;20263;-49
2023/01/01 06:24:19;;;;;;;9.17;3.10;;;14.30;99.90;;;;;;5055931;28;20230;-49
2023/01/01 06:26:47;;;;;;;7.47;3.83;;;14.30;99.90;;;;;;5054277;28;20250;-50
2023/01/01 06:29:15;;;;;;;8.40;2.93;;;14.30;99.90;;;;;;5055992;28;20233;-52
2023/01/01 06:31:43;;;;;;;5.57;2.47;;;14.30;99.90;;;;;;5055426;28;20248;-49
2023/01/01 06:34:14;;;;;;;6.43;2.67;;;14.30;99.90;;;;;;5055573;28;20691;-50
2023/01/01 06:36:42;;;;;;;7.87;2.80;;;14.30;99.90;;;;;;5055836;28;20230;-49
2023/01/01 06:39:10;;;;;;;7.77;2.90;;;14.20;99.90;;;;;;5055410;28;20239;-50
2023/01/01 06:41:38;;;;;;;7.00;2.40;;;14.30;99.90;;;;;;5055571;28;20223;-50
2023/01/01 06:44:06;;;;;;;6.83;2.60;;;14.30;99.90;;;;;;5055272;28;20220;-51
2023/01/01 06:46:35;;;;;;;6.00;2.40;;;14.30;99.90;;;;;;5055172;28;20231;-51
2023/01/01 06:49:07;;;;;;;9.23;2.40;;;14.20;99.90;;;;;;5055721;28;20241;-49
2023/01/01 06:51:40;;;;;;;6.80;2.50;;;14.20;99.90;;;;;;5055190;28;20322;-52
2023/01/01 06:54:08;;;;;;;9.13;2.73;;;14.20;99.90;;;;;;5055328;28;20591;-51
2023/01/01 06:56:37;;;;;;;7.47;2.57;;;14.20;99.90;;;;;;5055104;28;20307;-51
2023/01/01 06:59:05;;;;;;;4.33;2.40;;;14.20;99.90;;;;;;5055136;28;20649;-51
2023/01/01 07:01:35;;;;;;;6.57;2.07;;;14.10;99.90;;;;;;5054281;28;20243;-52
2023/01/01 07:04:06;;;;;;;5.67;2.63;;;14.20;99.90;;;;;;5055146;28;20224;-50
2023/01/01 07:06:35;;;;;;;6.70;2.43;;;14.10;99.90;;;;;;5054143;28;20226;-51
2023/01/01 07:09:05;;;;;;;6.40;2.30;;;14.10;99.90;;;;;;5055167;28;20236;-51
2023/01/01 07:11:34;;;;;;;8.40;2.50;;;14.10;99.90;;;;;;5054834;28;20228;-49
2023/01/01 07:14:02;;;;;;;8.17;2.47;;;14.00;99.90;;;;;;5055163;28;20235;-50
2023/01/01 07:16:30;;;;;;;7.97;2.40;;;14.00;99.90;;;;;;5054707;28;20231;-51
2023/01/01 07:18:59;;;;;;;11.63;2.70;;;14.00;99.90;;;;;;5054854;28;20642;-51
2023/01/01 07:21:30;;;;;;;5.00;1.93;;;14.00;99.90;;;;;;5054929;28;20227;-51
2023/01/01 07:24:00;;;;;;;5.63;2.40;;;14.00;99.90;;;;;;5054886;28;20234;-51
2023/01/01 07:26:30;;;;;;;4.87;2.00;;;14.00;99.90;;;;;;5054339;28;20227;-48
2023/01/01 07:28:59;;;;;;;5.40;2.40;;;14.00;99.90;;;;;;5054450;28;20239;-50
2023/01/01 07:31:34;;;;;;;7.23;2.47;;;14.00;99.90;;;;;;5054283;28;20662;-52
2023/01/01 07:34:02;;;;;;;5.47;2.10;;;14.00;99.90;;;;;;5054324;28;20764;-53
2023/01/01 07:36:30;;;;;;;7.83;2.63;;;13.90;99.90;;;;;;5054081;28;20729;-53
2023/01/01 07:38:58;;;;;;;5.17;2.00;;;13.90;99.90;;;;;;5054846;28;20270;-50
2023/01/01 07:41:26;;;;;;;8.33;2.63;;;13.90;99.90;;;;;;5054685;28;20256;-51
2023/01/01 07:43:56;;;;;;;3.33;1.80;;;13.90;99.90;;;;;;5054519;28;20246;-50
2023/01/01 07:46:24;;;;;;;4.30;1.90;;;14.00;99.90;;;;;;5054666;28;20238;-51
2023/01/01 07:48:52;;;;;;;6.87;2.07;;;13.90;99.90;;;;;;5054684;28;20234;-49
2023/01/01 07:51:20;;;;;;;6.10;2.03;;;13.90;99.90;;;;;;5054808;28;20234;-52
2023/01/01 07:53:48;;;;;;;5.50;1.90;;;13.90;99.90;;;;;;5054267;28;20972;-51
2023/01/01 07:56:16;;;;;;;5.30;1.80;;;13.90;99.90;;;;;;5054458;28;20243;-51
2023/01/01 07:58:45;;;;;;;4.10;1.50;;;13.90;99.90;;;;;;5054130;28;20251;-47
2023/01/01 08:01:14;;;;;;;4.73;1.60;;;13.90;99.90;;;;;;5053445;28;20253;-50
2023/01/01 08:03:42;;;;;;;4.00;1.80;;;13.90;99.90;;;;;;5053199;28;20235;-51
2023/01/01 08:06:12;;;;;;;2.97;1.43;;;13.90;99.90;;;;;;5046571;28;20242;-51
2023/01/01 08:08:41;;;;;;;6.20;1.60;;;13.90;99.90;;;;;;5053738;28;20633;-51
2023/01/01 08:11:09;;;;;;;4.37;1.87;;;13.90;99.90;;;;;;5053372;28;20241;-51
2023/01/01 08:13:37;;;;;;;2.47;1.37;;;13.80;99.90;;;;;;5054017;28;20234;-50
2023/01/01 08:16:06;;;;;;;6.03;1.90;;;13.80;99.90;;;;;;5053831;28;20231;-51
2023/01/01 08:18:35;;;;;;;4.70;1.47;;;13.80;99.90;;;;;;5053209;28;20259;-49
2023/01/01 08:21:04;;;;;;;2.40;1.20;;;13.80;99.90;;;;;;5053717;28;20253;-51
2023/01/01 08:23:32;;;;;;;2.20;1.10;;;13.80;99.90;;;;;;5053570;28;20313;-51
2023/01/01 08:26:01;;;;;;;5.30;1.27;;;13.80;99.90;;;;;;5053787;28;20234;-51
2023/01/01 08:28:30;;;;;;;3.70;1.20;;;13.70;99.90;;;;;;5053535;28;20236;-52
2023/01/01 08:30:59;;;;;;;3.97;1.50;;;13.70;99.90;;;;;;5053046;28;20230;-50
2023/01/01 08:33:29;;;;;;;3.10;1.57;;;13.70;99.90;;;;;;5053168;28;20227;-50
2023/01/01 08:35:58;;;;;;;1.97;1.30;;;13.80;99.90;;;;;;5053319;28;20245;-50
2023/01/01 08:38:27;;;;;;;3.80;1.50;;;13.70;99.90;;;;;;5053158;28;20254;-51
2023/01/01 08:40:55;;;;;;;2.87;1.30;;;13.70;99.90;;;;;;5050440;28;20678;-51
2023/01/01 08:43:24;;;;;;;4.53;1.90;;;13.80;99.90;;;;;;5051444;28;20328;-51
2023/01/01 08:45:52;;;;;;;3.63;1.80;;;13.80;99.90;;;;;;5053126;28;20305;-51
2023/01/01 08:48:20;;;;;;;4.10;1.53;;;13.90;99.90;;;;;;5053374;28;20733;-51
2023/01/01 08:50:59;;;;;;;4.03;1.53;;;13.80;99.90;;;;;;5053232;28;20281;-52
2023/01/01 08:53:28;;;;;;;4.63;2.20;;;13.80;99.90;;;;;;5053007;28;20227;-52
2023/01/01 08:55:58;;;;;;;4.50;1.70;;;13.80;99.90;;;;;;5053010;28;20227;-51
2023/01/01 08:58:26;;;;;;;4.67;1.33;;;13.80;99.90;;;;;;5045611;28;20567;-50
2023/01/01 09:00:54;;;;;;;4.33;1.83;;;13.80;99.90;;;;;;5059258;28;20256;-49
2023/01/01 09:03:23;;;;;;;4.20;1.37;;;13.80;99.90;;;;;;5061303;28;20226;-53
2023/01/01 09:05:51;;;;;;;4.93;1.30;;;13.80;99.90;;;;;;5063292;28;20706;-51
2023/01/01 09:08:20;;;;;;;4.87;1.60;;;13.70;99.90;;;;;;5059110;28;20260;-52
2023/01/01 09:10:49;;;;;;;2.90;1.37;;;13.60;99.90;;;;;;5060678;28;20231;-53
2023/01/01 09:13:21;;;;;;;3.77;1.27;;;13.60;99.90;;;;;;5064469;28;20222;-52
2023/01/01 09:15:49;;;;;;;7.27;1.87;;;13.60;99.90;;;;;;5066936;28;20229;-52
2023/01/01 09:18:17;;;;;;;2.83;1.30;;;13.50;99.90;;;;;;5065491;28;20313;-50
2023/01/01 09:20:45;;;;;;;6.67;1.93;;;13.60;99.90;;;;;;5064675;28;20246;-50
2023/01/01 09:23:13;;;;;;;4.40;2.03;;;13.50;99.90;;;;;;5064174;28;20230;-51
2023/01/01 09:25:41;;;;;;;3.37;1.30;;;13.50;99.90;;;;;;5064633;28;20867;-51
2023/01/01 09:28:13;;;;;;;4.00;1.30;;;13.60;99.90;;;;;;5065749;28;20223;-52
2023/01/01 09:30:41;;;;;;;3.53;1.50;;;13.60;99.90;;;;;;5065314;28;20243;-49
2023/01/01 09:33:09;;;;;;;5.63;1.83;;;13.60;99.90;;;;;;5065794;28;20227;-52
2023/01/01 09:35:37;;;;;;;4.03;1.10;;;13.60;99.90;;;;;;5064513;28;20555;-52
2023/01/01 09:38:05;;;;;;;3.40;1.47;;;13.60;99.90;;;;;;5066894;28;21475;-48
2023/01/01 09:40:44;;;;;;;6.70;1.40;;;13.60;99.90;;;;;;5061494;28;20694;-51
2023/01/01 09:43:30;;;;;;;7.93;1.80;;;13.50;99.90;;;;;;5059887;28;20227;-52
2023/01/01 09:46:01;;;;;;;5.37;1.53;;;13.50;99.90;;;;;;5061104;28;20229;-49
2023/01/01 09:48:31;;;;;;;4.77;1.60;;;13.50;99.90;;;;;;5062151;28;20716;-51
2023/01/01 09:51:03;;;;;;;3.73;1.40;;;13.50;99.90;;;;;;5061684;28;20218;-51
2023/01/01 09:53:34;;;;;;;3.50;1.43;;;13.50;99.90;;;;;;5062066;28;20224;-51
2023/01/01 09:56:04;;;;;;;3.97;1.47;;;13.50;99.90;;;;;;5060176;28;20233;-49
2023/01/01 09:58:36;;;;;;;3.97;1.40;;;13.50;99.90;;;;;;5059978;28;20226;-51
2023/01/01 10:01:17;;;;;;;4.03;1.40;;;13.50;99.90;;;;;;5059676;28;20241;-51
2023/01/01 10:03:50;;;;;;;4.90;1.53;;;13.50;99.90;;;;;;5060196;28;20589;-54
2023/01/01 10:06:22;;;;;;;3.70;1.33;;;13.50;99.90;;;;;;5063786;28;20301;-54
2023/01/01 10:09:08;;;;;;;10.47;2.27;;;13.60;99.90;;;;;;5065036;28;20242;-51
2023/01/01 10:11:49;;;;;;;4.13;1.50;;;13.60;99.90;;;;;;5062209;28;20235;-52
2023/01/01 10:14:25;;;;;;;3.03;1.70;;;13.70;99.90;;;;;;5064536;28;20229;-49
2023/01/01 10:16:56;;;;;;;3.43;1.23;;;13.70;99.90;;;;;;5064490;28;20714;-50
2023/01/01 10:19:33;;;;;;;4.00;1.40;;;13.80;99.90;;;;;;5064606;28;20238;-52
2023/01/01 10:22:04;;;;;;;2.83;1.20;;;13.70;99.90;;;;;;5063385;28;20226;-53
2023/01/01 10:24:42;;;;;;;5.70;1.50;;;13.80;99.90;;;;;;5063563;28;20230;-50
2023/01/01 10:27:23;;;;;;;5.13;1.30;;;13.80;99.90;;;;;;5063724;28;20225;-51
2023/01/01 10:29:53;;;;;;;4.17;1.53;;;13.80;99.90;;;;;;5063008;28;20238;-50
2023/01/01 10:32:34;;;;;;;3.70;1.00;;;13.80;99.90;;;;;;5064449;28;20717;-54
2023/01/01 10:35:10;;;;;;;8.67;1.73;;;13.80;99.90;;;;;;5065119;28;20317;-52
2023/01/01 10:37:39;;;;;;;4.37;1.50;;;13.80;99.90;;;;;;5065127;28;20269;-51
2023/01/01 10:40:15;;;;;;;4.00;1.37;;;13.90;99.90;;;;;;5063911;28;20230;-51
2023/01/01 10:42:47;;;;;;;5.53;1.50;;;14.00;99.90;;;;;;5067581;28;20233;-51
2023/01/01 10:45:19;;;;;;;5.60;1.40;;;14.10;99.90;;;;;;5069822;28;20237;-50
2023/01/01 10:48:12;;;;;;;3.03;1.20;;;14.10;99.90;;;;;;5068680;28;20228;-50
2023/01/01 10:50:45;;;;;;;6.80;1.70;;;14.20;99.90;;;;;;5057286;28;20617;-51
2023/01/01 10:53:29;;;;;;;3.30;1.60;;;14.20;99.90;;;;;;5068107;28;20578;-48
2023/01/01 10:56:06;;;;;;;3.90;1.40;;;14.10;99.90;;;;;;5063293;28;20926;-48
2023/01/01 10:58:40;;;;;;;5.50;1.53;;;14.00;99.90;;;;;;5065169;28;20241;-51
2023/01/01 11:01:12;;;;;;;5.53;1.77;;;14.00;99.90;;;;;;5069123;28;20638;-50
2023/01/01 11:03:55;;;;;;;6.87;1.40;;;13.90;99.90;;;;;;5066872;28;20321;-52
2023/01/01 11:06:25;;;;;;;4.57;1.30;;;13.90;99.90;;;;;;5068345;28;20249;-49
2023/01/01 11:08:55;;;;;;;7.43;1.60;;;14.00;99.90;;;;;;5067665;28;20961;-52
2023/01/01 11:11:30;;;;;;;6.47;1.50;;;14.10;99.90;;;;;;5067034;28;20720;-50
2023/01/01 11:14:00;;;;;;;6.80;1.30;;;14.10;99.90;;;;;;5069171;28;20238;-50
2023/01/01 11:16:30;;;;;;;7.33;1.70;;;14.20;99.90;;;;;;5065421;28;20253;-48
2023/01/01 11:19:05;;;;;;;4.43;1.20;;;14.20;99.90;;;;;;5067256;28;20566;-49
2023/01/01 11:21:34;;;;;;;5.53;1.40;;;14.20;99.90;;;;;;5065431;28;20233;-52
2023/01/01 11:24:17;;;;;;;5.43;1.50;;;14.20;99.90;;;;;;5064610;28;20559;-50
2023/01/01 11:26:46;;;;;;;8.47;1.90;;;14.20;99.90;;;;;;5065167;28;20322;-52
2023/01/01 11:29:27;;;;;;;5.30;1.20;;;14.20;99.90;;;;;;5062962;28;20222;-54
2023/01/01 11:31:59;;;;;;;3.70;1.77;;;14.20;99.90;;;;;;5062950;28;20231;-51
2023/01/01 11:34:34;;;;;;;4.33;1.33;;;14.10;99.90;;;;;;5063678;28;20334;-49
2023/01/01 11:37:15;;;;;;;7.83;1.63;;;14.10;99.90;;;;;;5065945;28;20589;-50
2023/01/01 11:39:46;;;;;;;5.87;1.50;;;14.10;99.90;;;;;;5064588;28;20218;-49
2023/01/01 11:42:18;;;;;;;4.30;1.30;;;14.10;99.90;;;;;;5064666;28;20227;-51
2023/01/01 11:44:49;;;;;;;8.30;1.70;;;14.10;99.90;;;;;;5065021;28;20219;-51
2023/01/01 11:47:26;;;;;;;6.60;1.67;;;14.00;99.90;;;;;;5065636;28;20586;-51
2023/01/01 11:49:56;;;;;;;9.33;1.70;;;13.90;99.90;;;;;;5063651;28;20237;-51
2023/01/01 11:52:34;;;;;;;6.73;1.73;;;14.00;99.90;;;;;;5065355;28;20701;-50
2023/01/01 11:55:20;;;;;;;6.50;1.40;;;14.00;99.90;;;;;;5064389;28;20234;-52
2023/01/01 11:57:59;;;;;;;6.23;1.60;;;13.90;99.90;;;;;;5063210;28;20227;-50
2023/01/01 12:00:31;;;;;;;5.83;1.40;;;13.90;99.90;;;;;;5064845;28;20241;-47
2023/01/01 12:03:11;;;;;;;6.03;1.10;;;13.90;99.90;;;;;;5064093;28;20227;-49
2023/01/01 12:05:47;;;;;;;7.33;1.90;;;13.80;99.90;;;;;;5064568;28;20238;-49
2023/01/01 12:08:21;;;;;;;4.53;1.30;;;13.80;99.90;;;;;;5064679;28;20230;-50
2023/01/01 12:10:52;;;;;;;5.07;1.40;;;13.80;99.90;;;;;;5064319;28;20235;-51
2023/01/01 12:13:24;;;;;;;5.93;1.60;;;13.80;99.90;;;;;;5066280;28;20322;-50
2023/01/01 12:16:00;;;;;;;5.30;1.50;;;13.80;99.90;;;;;;5066643;28;20238;-50
2023/01/01 12:18:37;;;;;;;5.13;1.50;;;13.80;99.90;;;;;;5068225;28;20636;-51
2023/01/01 12:21:11;;;;;;;6.70;1.80;;;13.80;99.90;;;;;;5066289;28;20235;-51
2023/01/01 12:23:40;;;;;;;6.03;1.47;;;13.90;99.90;;;;;;5064528;28;20620;-50
2023/01/01 12:26:18;;;;;;;4.23;1.37;;;13.90;99.90;;;;;;5065206;28;20242;-51
2023/01/01 12:29:11;;;;;;;7.17;2.07;;;13.80;99.90;;;;;;5055965;28;20690;-50
2023/01/01 12:31:46;;;;;;;5.50;1.70;;;13.80;99.90;;;;;;5052701;28;20629;-50
2023/01/01 12:34:20;;;;;;;8.13;1.83;;;13.80;99.90;;;;;;5048671;28;20226;-51
2023/01/01 12:36:57;;;;;;;4.93;1.80;;;13.80;99.90;;;;;;5053237;28;20241;-49
2023/01/01 12:40:10;;;;;;;6.97;1.80;;;13.80;99.90;;;;;;5053098;28;20239;-50
2023/01/01 12:42:56;;;;;;;8.87;1.67;;;13.70;99.90;;;;;;5043141;28;20305;-49
2023/01/01 12:45:44;;;;;;;10.80;1.70;;;13.70;99.90;;;;;;5053396;28;20249;-48
2023/01/01 12:48:41;;;;;;;7.30;1.67;;;13.70;99.90;;;;;;5051119;28;20239;-48
2023/01/01 12:51:22;;;;;;;5.60;1.70;;;13.70;99.90;;;;;;5052725;28;20765;-50
2023/01/01 12:54:01;;;;;;;4.60;1.40;;;13.70;99.90;;;;;;5052979;28;20238;-50
2023/01/01 12:56:35;;;;;;;6.27;1.40;;;13.80;99.90;;;;;;5052789;28;20273;-51
2023/01/01 12:59:07;;;;;;;7.07;1.70;;;13.70;99.90;;;;;;5048511;28;20238;-50
2023/01/01 13:01:39;;;;;;;4.10;1.33;;;13.70;99.90;;;;;;5047832;28;20235;-51
2023/01/01 13:04:11;;;;;;;8.30;1.60;;;13.50;99.90;;;;;;5052488;28;20230;-51
2023/01/01 13:06:47;;;;;;;6.80;1.87;;;13.50;99.90;;;;;;5052194;28;20556;-51
2023/01/01 13:09:17;;;;;;;6.83;2.00;;;13.50;99.90;;;;;;5052767;28;20227;-50
2023/01/01 13:11:49;;;;;;;7.93;1.90;;;13.50;99.90;;;;;;5052704;28;21222;-50
2023/01/01 13:14:17;;;;;;;5.87;1.73;;;13.50;99.90;;;;;;5052981;28;20690;-51
2023/01/01 13:16:50;;;;;;;7.57;1.90;;;13.50;99.90;;;;;;5052873;28;20235;-49